sensor_id;sensor_type;location;lat;lon;timestamp;P1;durP1;ratioP1;P2;durP2;ratioP2
72284;SDS011;60220;53.552;10.092;2023-03-23T00:01:20;12.82;;;5.97;;
72284;SDS011;60220;53.552;10.092;2023-03-23T00:03:50;11.73;;;6.75;;
72284;SDS011;60220;53.552;10.092;2023-03-23T00:06:20;12.45;;;5.88;;
72284;SDS011;60220;53.552;10.092;2023-03-23T00:08:48;9.52;;;6.38;;
72284;SDS011;60220;53.552;10.092;2023-03-23T00:11:21;11.73;;;6.50;;
72284;SDS011;60220;53.552;10.092;2023-03-23T00:13:52;9.48;;;6.65;;
72284;SDS011;60220;53.552;10.092;2023-03-23T00:16:19;12.43;;;6.10;;
72284;SDS011;60220;53.552;10.092;2023-03-23T00:18:56;15.02;;;7.15;;
72284;SDS011;60220;53.552;10.092;2023-03-23T00:21:24;13.20;;;7.38;;
72284;SDS011;60220;53.552;10.092;2023-03-23T00:23:58;10.85;;;7.40;;
72284;SDS011;60220;53.552;10.092;2023-03-23T00:26:25;13.77;;;8.05;;
72284;SDS011;60220;53.552;10.092;2023-03-23T00:28:58;13.73;;;7.63;;
72284;SDS011;60220;53.552;10.092;2023-03-23T00:31:26;14.45;;;9.43;;
72284;SDS011;60220;53.552;10.092;2023-03-23T00:33:59;18.95;;;9.20;;
72284;SDS011;60220;53.552;10.092;2023-03-23T00:36:29;12.32;;;8.73;;
72284;SDS011;60220;53.552;10.092;2023-03-23T00:38:56;17.90;;;9.77;;
72284;SDS011;60220;53.552;10.092;2023-03-23T00:41:25;14.55;;;9.43;;
72284;SDS011;60220;53.552;10.092;2023-03-23T00:43:53;16.00;;;9.88;;
72284;SDS011;60220;53.552;10.092;2023-03-23T00:46:22;12.82;;;8.73;;
72284;SDS011;60220;53.552;10.092;2023-03-23T00:48:50;18.40;;;10.68;;
72284;SDS011;60220;53.552;10.092;2023-03-23T00:51:17;13.23;;;9.75;;
72284;SDS011;60220;53.552;10.092;2023-03-23T00:53:47;18.58;;;9.70;;
72284;SDS011;60220;53.552;10.092;2023-03-23T00:56:13;22.20;;;11.60;;
72284;SDS011;60220;53.552;10.092;2023-03-23T00:58:41;21.38;;;12.43;;
72284;SDS011;60220;53.552;10.092;2023-03-23T01:01:08;20.95;;;11.18;;
72284;SDS011;60220;53.552;10.092;2023-03-23T01:03:36;19.15;;;12.13;;
72284;SDS011;60220;53.552;10.092;2023-03-23T01:06:06;18.50;;;11.95;;
72284;SDS011;60220;53.552;10.092;2023-03-23T01:08:38;20.55;;;12.30;;
72284;SDS011;60220;53.552;10.092;2023-03-23T01:11:10;23.48;;;12.20;;
72284;SDS011;60220;53.552;10.092;2023-03-23T01:13:39;18.50;;;12.15;;
72284;SDS011;60220;53.552;10.092;2023-03-23T01:16:07;16.77;;;10.93;;
72284;SDS011;60220;53.552;10.092;2023-03-23T01:18:35;20.15;;;12.40;;
72284;SDS011;60220;53.552;10.092;2023-03-23T01:21:05;20.88;;;12.75;;
72284;SDS011;60220;53.552;10.092;2023-03-23T01:23:35;20.30;;;12.82;;
72284;SDS011;60220;53.552;10.092;2023-03-23T01:26:04;23.52;;;13.30;;
72284;SDS011;60220;53.552;10.092;2023-03-23T01:28:34;20.50;;;11.27;;
72284;SDS011;60220;53.552;10.092;2023-03-23T01:31:03;22.70;;;14.25;;
72284;SDS011;60220;53.552;10.092;2023-03-23T01:33:31;23.42;;;12.70;;
72284;SDS011;60220;53.552;10.092;2023-03-23T01:36:03;19.83;;;12.60;;
72284;SDS011;60220;53.552;10.092;2023-03-23T01:38:31;18.95;;;11.90;;
72284;SDS011;60220;53.552;10.092;2023-03-23T01:40:57;21.55;;;13.07;;
72284;SDS011;60220;53.552;10.092;2023-03-23T01:43:28;17.50;;;11.13;;
72284;SDS011;60220;53.552;10.092;2023-03-23T01:45:54;21.92;;;12.23;;
72284;SDS011;60220;53.552;10.092;2023-03-23T01:48:22;21.88;;;12.93;;
72284;SDS011;60220;53.552;10.092;2023-03-23T01:50:54;21.45;;;11.13;;
72284;SDS011;60220;53.552;10.092;2023-03-23T01:53:26;19.95;;;10.68;;
72284;SDS011;60220;53.552;10.092;2023-03-23T01:55:57;17.52;;;10.55;;
72284;SDS011;60220;53.552;10.092;2023-03-23T01:58:25;21.40;;;11.63;;
72284;SDS011;60220;53.552;10.092;2023-03-23T02:00:58;24.00;;;13.68;;
72284;SDS011;60220;53.552;10.092;2023-03-23T02:03:27;24.50;;;13.60;;
72284;SDS011;60220;53.552;10.092;2023-03-23T02:05:58;22.02;;;12.77;;
72284;SDS011;60220;53.552;10.092;2023-03-23T02:08:27;26.02;;;13.93;;
72284;SDS011;60220;53.552;10.092;2023-03-23T02:10:54;26.55;;;13.63;;
72284;SDS011;60220;53.552;10.092;2023-03-23T02:13:22;23.35;;;13.00;;
72284;SDS011;60220;53.552;10.092;2023-03-23T02:15:52;23.13;;;12.57;;
72284;SDS011;60220;53.552;10.092;2023-03-23T02:18:29;22.05;;;12.85;;
72284;SDS011;60220;53.552;10.092;2023-03-23T02:21:14;21.50;;;12.00;;
72284;SDS011;60220;53.552;10.092;2023-03-23T02:24:01;18.33;;;12.60;;
72284;SDS011;60220;53.552;10.092;2023-03-23T02:26:47;27.17;;;13.18;;
72284;SDS011;60220;53.552;10.092;2023-03-23T02:32:23;23.80;;;12.88;;
72284;SDS011;60220;53.552;10.092;2023-03-23T02:35:08;19.52;;;13.98;;
72284;SDS011;60220;53.552;10.092;2023-03-23T02:37:39;23.73;;;13.07;;
72284;SDS011;60220;53.552;10.092;2023-03-23T02:40:13;22.80;;;14.05;;
72284;SDS011;60220;53.552;10.092;2023-03-23T02:42:45;20.88;;;11.60;;
72284;SDS011;60220;53.552;10.092;2023-03-23T02:45:16;21.05;;;11.88;;
72284;SDS011;60220;53.552;10.092;2023-03-23T02:47:46;20.17;;;11.77;;
72284;SDS011;60220;53.552;10.092;2023-03-23T02:50:16;22.83;;;13.38;;
72284;SDS011;60220;53.552;10.092;2023-03-23T02:52:48;21.60;;;13.13;;
72284;SDS011;60220;53.552;10.092;2023-03-23T02:55:16;17.60;;;10.18;;
72284;SDS011;60220;53.552;10.092;2023-03-23T02:57:46;19.50;;;11.95;;
72284;SDS011;60220;53.552;10.092;2023-03-23T03:00:14;20.52;;;12.65;;
72284;SDS011;60220;53.552;10.092;2023-03-23T03:02:45;20.75;;;12.95;;
72284;SDS011;60220;53.552;10.092;2023-03-23T03:05:20;17.20;;;11.60;;
72284;SDS011;60220;53.552;10.092;2023-03-23T03:07:59;19.25;;;12.00;;
72284;SDS011;60220;53.552;10.092;2023-03-23T03:10:34;20.70;;;11.63;;
72284;SDS011;60220;53.552;10.092;2023-03-23T03:13:10;25.48;;;12.82;;
72284;SDS011;60220;53.552;10.092;2023-03-23T03:15:45;18.45;;;11.40;;
72284;SDS011;60220;53.552;10.092;2023-03-23T03:18:18;19.35;;;12.10;;
72284;SDS011;60220;53.552;10.092;2023-03-23T03:20:52;21.00;;;13.50;;
72284;SDS011;60220;53.552;10.092;2023-03-23T03:23:26;24.55;;;13.50;;
72284;SDS011;60220;53.552;10.092;2023-03-23T03:25:54;23.17;;;12.82;;
72284;SDS011;60220;53.552;10.092;2023-03-23T03:28:23;18.95;;;12.20;;
72284;SDS011;60220;53.552;10.092;2023-03-23T03:30:52;18.10;;;11.40;;
72284;SDS011;60220;53.552;10.092;2023-03-23T03:33:22;19.70;;;12.02;;
72284;SDS011;60220;53.552;10.092;2023-03-23T03:35:51;20.85;;;12.43;;
72284;SDS011;60220;53.552;10.092;2023-03-23T03:38:20;17.63;;;11.82;;
72284;SDS011;60220;53.552;10.092;2023-03-23T03:40:47;20.42;;;12.48;;
72284;SDS011;60220;53.552;10.092;2023-03-23T03:43:14;18.88;;;12.52;;
72284;SDS011;60220;53.552;10.092;2023-03-23T03:45:40;21.33;;;11.50;;
72284;SDS011;60220;53.552;10.092;2023-03-23T03:48:09;19.52;;;11.52;;
72284;SDS011;60220;53.552;10.092;2023-03-23T03:50:38;18.45;;;11.98;;
72284;SDS011;60220;53.552;10.092;2023-03-23T03:53:07;20.50;;;12.30;;
72284;SDS011;60220;53.552;10.092;2023-03-23T03:55:34;13.43;;;9.77;;
72284;SDS011;60220;53.552;10.092;2023-03-23T03:58:03;18.42;;;12.20;;
72284;SDS011;60220;53.552;10.092;2023-03-23T04:00:30;21.23;;;12.90;;
72284;SDS011;60220;53.552;10.092;2023-03-23T04:02:57;17.35;;;11.13;;
72284;SDS011;60220;53.552;10.092;2023-03-23T04:05:25;20.15;;;11.68;;
72284;SDS011;60220;53.552;10.092;2023-03-23T04:07:56;18.90;;;13.65;;
72284;SDS011;60220;53.552;10.092;2023-03-23T04:10:28;18.63;;;12.27;;
72284;SDS011;60220;53.552;10.092;2023-03-23T04:12:55;20.67;;;13.30;;
72284;SDS011;60220;53.552;10.092;2023-03-23T04:15:23;21.73;;;14.73;;
72284;SDS011;60220;53.552;10.092;2023-03-23T04:17:49;21.83;;;11.60;;
72284;SDS011;60220;53.552;10.092;2023-03-23T04:20:16;20.40;;;12.82;;
72284;SDS011;60220;53.552;10.092;2023-03-23T04:22:44;18.95;;;11.90;;
72284;SDS011;60220;53.552;10.092;2023-03-23T04:25:14;19.33;;;11.95;;
72284;SDS011;60220;53.552;10.092;2023-03-23T04:27:47;16.20;;;11.65;;
72284;SDS011;60220;53.552;10.092;2023-03-23T04:30:18;18.63;;;11.73;;
72284;SDS011;60220;53.552;10.092;2023-03-23T04:32:46;17.30;;;12.63;;
72284;SDS011;60220;53.552;10.092;2023-03-23T04:35:15;18.73;;;11.15;;
72284;SDS011;60220;53.552;10.092;2023-03-23T04:37:43;17.80;;;12.60;;
72284;SDS011;60220;53.552;10.092;2023-03-23T04:40:13;17.92;;;12.23;;
72284;SDS011;60220;53.552;10.092;2023-03-23T04:42:41;17.80;;;11.85;;
72284;SDS011;60220;53.552;10.092;2023-03-23T04:45:15;19.67;;;12.93;;
72284;SDS011;60220;53.552;10.092;2023-03-23T04:47:46;16.45;;;12.50;;
72284;SDS011;60220;53.552;10.092;2023-03-23T04:50:18;15.95;;;11.65;;
72284;SDS011;60220;53.552;10.092;2023-03-23T04:52:46;19.08;;;11.30;;
72284;SDS011;60220;53.552;10.092;2023-03-23T04:55:16;18.98;;;11.75;;
72284;SDS011;60220;53.552;10.092;2023-03-23T04:57:47;18.60;;;13.25;;
72284;SDS011;60220;53.552;10.092;2023-03-23T05:00:16;17.85;;;11.93;;
72284;SDS011;60220;53.552;10.092;2023-03-23T05:02:43;20.73;;;11.95;;
72284;SDS011;60220;53.552;10.092;2023-03-23T05:05:12;19.98;;;11.32;;
72284;SDS011;60220;53.552;10.092;2023-03-23T05:07:40;15.70;;;10.60;;
72284;SDS011;60220;53.552;10.092;2023-03-23T05:10:10;16.17;;;10.88;;
72284;SDS011;60220;53.552;10.092;2023-03-23T05:12:38;13.85;;;8.43;;
72284;SDS011;60220;53.552;10.092;2023-03-23T05:15:05;12.60;;;9.32;;
72284;SDS011;60220;53.552;10.092;2023-03-23T05:17:35;16.45;;;10.15;;
72284;SDS011;60220;53.552;10.092;2023-03-23T05:20:02;15.70;;;10.15;;
72284;SDS011;60220;53.552;10.092;2023-03-23T05:22:34;14.90;;;9.57;;
72284;SDS011;60220;53.552;10.092;2023-03-23T05:25:04;14.57;;;9.27;;
72284;SDS011;60220;53.552;10.092;2023-03-23T05:27:36;14.60;;;9.85;;
72284;SDS011;60220;53.552;10.092;2023-03-23T05:30:04;11.65;;;9.05;;
72284;SDS011;60220;53.552;10.092;2023-03-23T05:32:32;15.32;;;9.05;;
72284;SDS011;60220;53.552;10.092;2023-03-23T05:35:00;22.17;;;9.40;;
72284;SDS011;60220;53.552;10.092;2023-03-23T05:37:28;15.05;;;9.07;;
72284;SDS011;60220;53.552;10.092;2023-03-23T05:39:57;15.07;;;7.60;;
72284;SDS011;60220;53.552;10.092;2023-03-23T05:42:30;13.43;;;8.00;;
72284;SDS011;60220;53.552;10.092;2023-03-23T05:44:59;9.98;;;7.75;;
72284;SDS011;60220;53.552;10.092;2023-03-23T05:47:26;14.48;;;7.43;;
72284;SDS011;60220;53.552;10.092;2023-03-23T05:49:55;11.25;;;7.20;;
72284;SDS011;60220;53.552;10.092;2023-03-23T05:52:25;11.68;;;6.60;;
72284;SDS011;60220;53.552;10.092;2023-03-23T05:54:52;8.30;;;6.40;;
72284;SDS011;60220;53.552;10.092;2023-03-23T05:57:21;11.65;;;6.25;;
72284;SDS011;60220;53.552;10.092;2023-03-23T05:59:48;11.02;;;7.03;;
72284;SDS011;60220;53.552;10.092;2023-03-23T06:02:15;9.30;;;6.63;;
72284;SDS011;60220;53.552;10.092;2023-03-23T06:04:41;11.68;;;6.22;;
72284;SDS011;60220;53.552;10.092;2023-03-23T06:07:08;11.85;;;6.68;;
72284;SDS011;60220;53.552;10.092;2023-03-23T06:09:41;10.98;;;6.35;;
72284;SDS011;60220;53.552;10.092;2023-03-23T06:12:09;14.63;;;6.70;;
72284;SDS011;60220;53.552;10.092;2023-03-23T06:14:36;9.20;;;6.13;;
72284;SDS011;60220;53.552;10.092;2023-03-23T06:17:03;9.23;;;5.53;;
72284;SDS011;60220;53.552;10.092;2023-03-23T06:19:31;12.13;;;5.30;;
72284;SDS011;60220;53.552;10.092;2023-03-23T06:21:59;8.23;;;5.60;;
72284;SDS011;60220;53.552;10.092;2023-03-23T06:24:26;8.23;;;5.03;;
72284;SDS011;60220;53.552;10.092;2023-03-23T06:26:54;10.40;;;5.07;;
72284;SDS011;60220;53.552;10.092;2023-03-23T06:29:21;8.43;;;5.10;;
72284;SDS011;60220;53.552;10.092;2023-03-23T06:31:49;9.02;;;5.38;;
72284;SDS011;60220;53.552;10.092;2023-03-23T06:34:19;8.63;;;4.63;;
72284;SDS011;60220;53.552;10.092;2023-03-23T06:36:45;9.38;;;4.53;;
72284;SDS011;60220;53.552;10.092;2023-03-23T06:39:14;10.18;;;5.30;;
72284;SDS011;60220;53.552;10.092;2023-03-23T06:41:42;9.60;;;4.95;;
72284;SDS011;60220;53.552;10.092;2023-03-23T06:44:10;6.68;;;4.15;;
72284;SDS011;60220;53.552;10.092;2023-03-23T06:46:40;7.15;;;4.13;;
72284;SDS011;60220;53.552;10.092;2023-03-23T06:49:08;7.55;;;4.78;;
72284;SDS011;60220;53.552;10.092;2023-03-23T06:51:35;8.93;;;4.85;;
72284;SDS011;60220;53.552;10.092;2023-03-23T06:54:02;9.52;;;4.22;;
72284;SDS011;60220;53.552;10.092;2023-03-23T06:56:29;6.82;;;4.25;;
72284;SDS011;60220;53.552;10.092;2023-03-23T06:58:57;6.13;;;3.88;;
72284;SDS011;60220;53.552;10.092;2023-03-23T07:01:26;7.55;;;4.35;;
72284;SDS011;60220;53.552;10.092;2023-03-23T07:03:53;8.18;;;3.80;;
72284;SDS011;60220;53.552;10.092;2023-03-23T07:06:20;9.32;;;4.38;;
72284;SDS011;60220;53.552;10.092;2023-03-23T07:08:47;7.15;;;3.80;;
72284;SDS011;60220;53.552;10.092;2023-03-23T07:11:14;5.80;;;3.10;;
72284;SDS011;60220;53.552;10.092;2023-03-23T07:13:43;8.98;;;3.65;;
72284;SDS011;60220;53.552;10.092;2023-03-23T07:16:10;7.25;;;3.40;;
72284;SDS011;60220;53.552;10.092;2023-03-23T07:18:38;6.18;;;2.97;;
72284;SDS011;60220;53.552;10.092;2023-03-23T07:21:06;8.52;;;3.63;;
72284;SDS011;60220;53.552;10.092;2023-03-23T07:23:33;7.85;;;3.88;;
72284;SDS011;60220;53.552;10.092;2023-03-23T07:25:59;7.93;;;4.10;;
72284;SDS011;60220;53.552;10.092;2023-03-23T07:28:26;10.45;;;3.80;;
72284;SDS011;60220;53.552;10.092;2023-03-23T07:30:53;8.43;;;3.92;;
72284;SDS011;60220;53.552;10.092;2023-03-23T07:33:20;5.45;;;3.40;;
72284;SDS011;60220;53.552;10.092;2023-03-23T07:35:48;6.18;;;3.35;;
72284;SDS011;60220;53.552;10.092;2023-03-23T07:38:15;9.13;;;3.85;;
72284;SDS011;60220;53.552;10.092;2023-03-23T07:40:42;6.57;;;3.25;;
72284;SDS011;60220;53.552;10.092;2023-03-23T07:43:09;7.68;;;2.92;;
72284;SDS011;60220;53.552;10.092;2023-03-23T07:45:35;5.30;;;2.95;;
72284;SDS011;60220;53.552;10.092;2023-03-23T07:48:02;6.65;;;3.03;;
72284;SDS011;60220;53.552;10.092;2023-03-23T07:50:32;4.95;;;3.50;;
72284;SDS011;60220;53.552;10.092;2023-03-23T07:53:02;4.65;;;2.72;;
72284;SDS011;60220;53.552;10.092;2023-03-23T07:55:30;6.20;;;3.42;;
72284;SDS011;60220;53.552;10.092;2023-03-23T07:57:56;6.72;;;3.83;;
72284;SDS011;60220;53.552;10.092;2023-03-23T08:00:38;4.28;;;3.55;;
72284;SDS011;60220;53.552;10.092;2023-03-23T08:03:11;6.00;;;3.42;;
72284;SDS011;60220;53.552;10.092;2023-03-23T08:05:49;6.30;;;3.70;;
72284;SDS011;60220;53.552;10.092;2023-03-23T08:08:17;7.47;;;3.20;;
72284;SDS011;60220;53.552;10.092;2023-03-23T08:10:47;4.82;;;3.90;;
72284;SDS011;60220;53.552;10.092;2023-03-23T08:13:15;8.82;;;4.28;;
72284;SDS011;60220;53.552;10.092;2023-03-23T08:15:42;7.38;;;3.65;;
72284;SDS011;60220;53.552;10.092;2023-03-23T08:18:10;3.20;;;2.78;;
72284;SDS011;60220;53.552;10.092;2023-03-23T08:20:55;9.35;;;3.70;;
72284;SDS011;60220;53.552;10.092;2023-03-23T08:23:23;4.22;;;3.15;;
72284;SDS011;60220;53.552;10.092;2023-03-23T08:25:51;6.72;;;3.70;;
72284;SDS011;60220;53.552;10.092;2023-03-23T08:28:21;6.75;;;3.60;;
72284;SDS011;60220;53.552;10.092;2023-03-23T08:30:48;4.47;;;3.70;;
72284;SDS011;60220;53.552;10.092;2023-03-23T08:33:24;5.28;;;3.20;;
72284;SDS011;60220;53.552;10.092;2023-03-23T08:35:56;5.30;;;4.00;;
72284;SDS011;60220;53.552;10.092;2023-03-23T08:38:44;4.93;;;3.83;;
72284;SDS011;60220;53.552;10.092;2023-03-23T08:41:20;3.88;;;2.97;;
72284;SDS011;60220;53.552;10.092;2023-03-23T08:44:35;2.40;;;1.40;;
72284;SDS011;60220;53.552;10.092;2023-03-23T08:47:30;3.40;;;2.72;;
72284;SDS011;60220;53.552;10.092;2023-03-23T08:49:57;3.75;;;2.88;;
72284;SDS011;60220;53.552;10.092;2023-03-23T08:52:29;10.18;;;4.20;;
72284;SDS011;60220;53.552;10.092;2023-03-23T08:55:08;5.68;;;4.03;;
72284;SDS011;60220;53.552;10.092;2023-03-23T09:00:49;9.68;;;5.43;;
72284;SDS011;60220;53.552;10.092;2023-03-23T09:03:23;7.00;;;4.28;;
72284;SDS011;60220;53.552;10.092;2023-03-23T09:06:43;7.45;;;4.82;;
72284;SDS011;60220;53.552;10.092;2023-03-23T09:09:24;7.60;;;3.33;;
72284;SDS011;60220;53.552;10.092;2023-03-23T09:12:20;7.32;;;3.63;;
72284;SDS011;60220;53.552;10.092;2023-03-23T09:14:56;6.10;;;3.13;;
72284;SDS011;60220;53.552;10.092;2023-03-23T09:17:43;9.30;;;2.35;;
72284;SDS011;60220;53.552;10.092;2023-03-23T09:20:36;6.97;;;2.13;;
72284;SDS011;60220;53.552;10.092;2023-03-23T09:24:00;9.50;;;2.58;;
72284;SDS011;60220;53.552;10.092;2023-03-23T09:26:50;5.97;;;1.85;;
72284;SDS011;60220;53.552;10.092;2023-03-23T09:29:31;4.65;;;1.73;;
72284;SDS011;60220;53.552;10.092;2023-03-23T09:32:21;10.43;;;2.17;;
72284;SDS011;60220;53.552;10.092;2023-03-23T09:35:38;7.03;;;2.35;;
72284;SDS011;60220;53.552;10.092;2023-03-23T09:38:12;6.43;;;1.77;;
72284;SDS011;60220;53.552;10.092;2023-03-23T09:41:28;5.03;;;1.73;;
72284;SDS011;60220;53.552;10.092;2023-03-23T09:44:19;8.43;;;1.92;;
72284;SDS011;60220;53.552;10.092;2023-03-23T09:47:32;4.63;;;2.22;;
72284;SDS011;60220;53.552;10.092;2023-03-23T09:50:11;10.60;;;1.88;;
72284;SDS011;60220;53.552;10.092;2023-03-23T09:53:01;5.63;;;1.50;;
72284;SDS011;60220;53.552;10.092;2023-03-23T09:55:34;13.05;;;2.25;;
72284;SDS011;60220;53.552;10.092;2023-03-23T09:58:09;8.07;;;1.80;;
72284;SDS011;60220;53.552;10.092;2023-03-23T10:01:13;7.35;;;1.98;;
72284;SDS011;60220;53.552;10.092;2023-03-23T10:03:59;14.02;;;2.08;;
72284;SDS011;60220;53.552;10.092;2023-03-23T10:06:43;7.30;;;1.92;;
72284;SDS011;60220;53.552;10.092;2023-03-23T10:09:31;7.60;;;2.13;;
72284;SDS011;60220;53.552;10.092;2023-03-23T10:12:19;9.98;;;2.60;;
72284;SDS011;60220;53.552;10.092;2023-03-23T10:15:12;8.25;;;2.20;;
72284;SDS011;60220;53.552;10.092;2023-03-23T10:17:47;11.52;;;2.10;;
72284;SDS011;60220;53.552;10.092;2023-03-23T10:23:58;9.55;;;2.10;;
72284;SDS011;60220;53.552;10.092;2023-03-23T10:26:54;11.15;;;2.85;;
72284;SDS011;60220;53.552;10.092;2023-03-23T10:29:35;6.43;;;2.85;;
72284;SDS011;60220;53.552;10.092;2023-03-23T10:32:36;9.68;;;2.85;;
72284;SDS011;60220;53.552;10.092;2023-03-23T10:35:31;10.53;;;2.57;;
72284;SDS011;60220;53.552;10.092;2023-03-23T10:41:11;7.03;;;2.40;;
72284;SDS011;60220;53.552;10.092;2023-03-23T10:43:57;9.57;;;2.10;;
72284;SDS011;60220;53.552;10.092;2023-03-23T10:46:38;12.05;;;3.30;;
72284;SDS011;60220;53.552;10.092;2023-03-23T10:49:23;12.88;;;2.85;;
72284;SDS011;60220;53.552;10.092;2023-03-23T10:52:24;9.48;;;2.63;;
72284;SDS011;60220;53.552;10.092;2023-03-23T10:55:06;8.27;;;2.40;;
72284;SDS011;60220;53.552;10.092;2023-03-23T10:58:10;10.20;;;3.55;;
72284;SDS011;60220;53.552;10.092;2023-03-23T11:01:06;13.10;;;2.40;;
72284;SDS011;60220;53.552;10.092;2023-03-23T11:03:40;11.55;;;2.90;;
72284;SDS011;60220;53.552;10.092;2023-03-23T11:06:17;9.35;;;2.60;;
72284;SDS011;60220;53.552;10.092;2023-03-23T11:12:23;16.80;;;3.22;;
72284;SDS011;60220;53.552;10.092;2023-03-23T11:15:16;16.15;;;2.95;;
72284;SDS011;60220;53.552;10.092;2023-03-23T11:18:00;9.98;;;2.88;;
72284;SDS011;60220;53.552;10.092;2023-03-23T11:21:14;10.38;;;2.78;;
72284;SDS011;60220;53.552;10.092;2023-03-23T11:23:49;10.93;;;2.40;;
72284;SDS011;60220;53.552;10.092;2023-03-23T11:26:35;7.57;;;2.53;;
72284;SDS011;60220;53.552;10.092;2023-03-23T11:29:35;9.65;;;3.47;;
72284;SDS011;60220;53.552;10.092;2023-03-23T11:32:45;10.88;;;2.60;;
72284;SDS011;60220;53.552;10.092;2023-03-23T11:38:27;13.68;;;2.38;;
72284;SDS011;60220;53.552;10.092;2023-03-23T11:41:31;9.65;;;2.30;;
72284;SDS011;60220;53.552;10.092;2023-03-23T11:44:03;10.40;;;2.50;;
72284;SDS011;60220;53.552;10.092;2023-03-23T11:46:50;11.15;;;3.08;;
72284;SDS011;60220;53.552;10.092;2023-03-23T11:50:00;13.07;;;3.30;;
72284;SDS011;60220;53.552;10.092;2023-03-23T11:52:37;10.40;;;3.05;;
72284;SDS011;60220;53.552;10.092;2023-03-23T11:58:19;15.60;;;3.35;;
72284;SDS011;60220;53.552;10.092;2023-03-23T12:00:47;9.98;;;2.65;;
72284;SDS011;60220;53.552;10.092;2023-03-23T12:03:32;5.80;;;2.97;;
72284;SDS011;60220;53.552;10.092;2023-03-23T12:06:52;9.43;;;2.95;;
72284;SDS011;60220;53.552;10.092;2023-03-23T12:09:37;11.50;;;3.22;;
72284;SDS011;60220;53.552;10.092;2023-03-23T12:12:37;11.68;;;2.97;;
72284;SDS011;60220;53.552;10.092;2023-03-23T12:18:54;15.68;;;3.17;;
72284;SDS011;60220;53.552;10.092;2023-03-23T12:21:58;12.93;;;3.25;;
72284;SDS011;60220;53.552;10.092;2023-03-23T12:24:58;9.68;;;2.88;;
72284;SDS011;60220;53.552;10.092;2023-03-23T12:27:55;6.20;;;2.95;;
72284;SDS011;60220;53.552;10.092;2023-03-23T12:31:07;9.38;;;2.60;;
72284;SDS011;60220;53.552;10.092;2023-03-23T12:37:21;10.80;;;3.13;;
72284;SDS011;60220;53.552;10.092;2023-03-23T12:43:57;10.02;;;2.95;;
72284;SDS011;60220;53.552;10.092;2023-03-23T12:47:10;6.78;;;2.80;;
72284;SDS011;60220;53.552;10.092;2023-03-23T12:53:00;11.38;;;3.28;;
72284;SDS011;60220;53.552;10.092;2023-03-23T12:55:53;7.93;;;2.90;;
72284;SDS011;60220;53.552;10.092;2023-03-23T12:59:06;16.52;;;2.95;;
72284;SDS011;60220;53.552;10.092;2023-03-23T13:02:24;15.13;;;3.08;;
72284;SDS011;60220;53.552;10.092;2023-03-23T13:05:36;13.10;;;3.42;;
72284;SDS011;60220;53.552;10.092;2023-03-23T13:08:31;14.07;;;3.70;;
72284;SDS011;60220;53.552;10.092;2023-03-23T13:11:21;10.63;;;3.35;;
72284;SDS011;60220;53.552;10.092;2023-03-23T13:14:03;8.52;;;3.50;;
72284;SDS011;60220;53.552;10.092;2023-03-23T13:16:57;11.40;;;3.17;;
72284;SDS011;60220;53.552;10.092;2023-03-23T13:19:54;14.68;;;3.28;;
72284;SDS011;60220;53.552;10.092;2023-03-23T13:25:59;8.20;;;2.85;;
72284;SDS011;60220;53.552;10.092;2023-03-23T13:28:29;8.95;;;3.10;;
72284;SDS011;60220;53.552;10.092;2023-03-23T13:34:20;9.60;;;3.10;;
72284;SDS011;60220;53.552;10.092;2023-03-23T13:36:56;9.02;;;2.78;;
72284;SDS011;60220;53.552;10.092;2023-03-23T13:39:56;7.63;;;3.15;;
72284;SDS011;60220;53.552;10.092;2023-03-23T13:42:55;7.40;;;2.85;;
72284;SDS011;60220;53.552;10.092;2023-03-23T13:45:42;8.00;;;2.75;;
72284;SDS011;60220;53.552;10.092;2023-03-23T13:49:02;7.20;;;2.78;;
72284;SDS011;60220;53.552;10.092;2023-03-23T13:55:12;6.75;;;2.70;;
72284;SDS011;60220;53.552;10.092;2023-03-23T13:58:09;6.60;;;2.40;;
72284;SDS011;60220;53.552;10.092;2023-03-23T14:00:50;9.45;;;3.30;;
72284;SDS011;60220;53.552;10.092;2023-03-23T14:03:35;6.93;;;2.95;;
72284;SDS011;60220;53.552;10.092;2023-03-23T14:06:52;6.10;;;2.38;;
72284;SDS011;60220;53.552;10.092;2023-03-23T14:09:25;5.60;;;2.53;;
72284;SDS011;60220;53.552;10.092;2023-03-23T14:15:16;5.75;;;2.33;;
72284;SDS011;60220;53.552;10.092;2023-03-23T14:20:54;4.07;;;2.42;;
72284;SDS011;60220;53.552;10.092;2023-03-23T14:23:27;6.80;;;2.92;;
72284;SDS011;60220;53.552;10.092;2023-03-23T14:26:44;8.40;;;1.58;;
72284;SDS011;60220;53.552;10.092;2023-03-23T14:29:22;3.30;;;0.98;;
72284;SDS011;60220;53.552;10.092;2023-03-23T14:32:11;3.50;;;1.33;;
72284;SDS011;60220;53.552;10.092;2023-03-23T14:34:51;4.03;;;1.27;;
72284;SDS011;60220;53.552;10.092;2023-03-23T14:37:45;2.20;;;1.33;;
72284;SDS011;60220;53.552;10.092;2023-03-23T14:43:39;7.40;;;1.48;;
72284;SDS011;60220;53.552;10.092;2023-03-23T14:47:00;5.45;;;2.30;;
72284;SDS011;60220;53.552;10.092;2023-03-23T14:50:25;4.88;;;1.65;;
72284;SDS011;60220;53.552;10.092;2023-03-23T14:53:18;5.80;;;1.95;;
72284;SDS011;60220;53.552;10.092;2023-03-23T14:56:08;6.97;;;2.03;;
72284;SDS011;60220;53.552;10.092;2023-03-23T14:58:45;5.47;;;1.80;;
72284;SDS011;60220;53.552;10.092;2023-03-23T15:01:32;3.88;;;1.33;;
72284;SDS011;60220;53.552;10.092;2023-03-23T15:04:21;4.75;;;1.73;;
72284;SDS011;60220;53.552;10.092;2023-03-23T15:06:59;7.20;;;2.00;;
72284;SDS011;60220;53.552;10.092;2023-03-23T15:12:35;5.25;;;1.50;;
72284;SDS011;60220;53.552;10.092;2023-03-23T15:15:24;5.45;;;1.98;;
72284;SDS011;60220;53.552;10.092;2023-03-23T15:17:59;5.18;;;1.60;;
72284;SDS011;60220;53.552;10.092;2023-03-23T15:21:07;4.72;;;1.80;;
72284;SDS011;60220;53.552;10.092;2023-03-23T15:23:43;7.10;;;2.42;;
72284;SDS011;60220;53.552;10.092;2023-03-23T15:26:29;6.05;;;2.13;;
72284;SDS011;60220;53.552;10.092;2023-03-23T15:29:11;4.75;;;1.77;;
72284;SDS011;60220;53.552;10.092;2023-03-23T15:31:45;5.80;;;1.77;;
72284;SDS011;60220;53.552;10.092;2023-03-23T15:38:28;10.95;;;2.42;;
72284;SDS011;60220;53.552;10.092;2023-03-23T15:41:06;7.03;;;2.55;;
72284;SDS011;60220;53.552;10.092;2023-03-23T15:44:19;7.40;;;2.33;;
72284;SDS011;60220;53.552;10.092;2023-03-23T15:46:55;5.28;;;2.05;;
72284;SDS011;60220;53.552;10.092;2023-03-23T15:50:08;6.13;;;2.00;;
72284;SDS011;60220;53.552;10.092;2023-03-23T15:53:31;6.97;;;2.22;;
72284;SDS011;60220;53.552;10.092;2023-03-23T15:59:02;4.35;;;2.00;;
72284;SDS011;60220;53.552;10.092;2023-03-23T16:02:27;6.80;;;2.00;;
72284;SDS011;60220;53.552;10.092;2023-03-23T16:05:15;8.50;;;2.38;;
72284;SDS011;60220;53.552;10.092;2023-03-23T16:07:49;3.08;;;1.73;;
72284;SDS011;60220;53.552;10.092;2023-03-23T16:10:23;5.70;;;2.10;;
72284;SDS011;60220;53.552;10.092;2023-03-23T16:13:24;7.68;;;2.17;;
72284;SDS011;60220;53.552;10.092;2023-03-23T16:15:58;6.63;;;2.00;;
72284;SDS011;60220;53.552;10.092;2023-03-23T16:18:35;5.72;;;2.03;;
72284;SDS011;60220;53.552;10.092;2023-03-23T16:21:32;5.72;;;2.35;;
72284;SDS011;60220;53.552;10.092;2023-03-23T16:24:08;4.15;;;2.03;;
72284;SDS011;60220;53.552;10.092;2023-03-23T16:26:42;5.70;;;2.25;;
72284;SDS011;60220;53.552;10.092;2023-03-23T16:29:47;6.43;;;2.30;;
72284;SDS011;60220;53.552;10.092;2023-03-23T16:32:17;8.75;;;2.63;;